sensor_id;sensor_type;location;lat;lon;timestamp;P1;durP1;ratioP1;P2;durP2;ratioP2
80293;SDS011;69594;43.516;1.498;2023-05-09T00:01:05;1.92;;;0.70;;
80293;SDS011;69594;43.516;1.498;2023-05-09T00:03:34;2.33;;;0.70;;
80293;SDS011;69594;43.516;1.498;2023-05-09T00:06:00;3.30;;;1.15;;
80293;SDS011;69594;43.516;1.498;2023-05-09T00:08:26;1.70;;;0.83;;
80293;SDS011;69594;43.516;1.498;2023-05-09T00:10:52;1.77;;;0.77;;
80293;SDS011;69594;43.516;1.498;2023-05-09T00:13:17;1.53;;;0.90;;
80293;SDS011;69594;43.516;1.498;2023-05-09T00:15:43;2.72;;;1.00;;
80293;SDS011;69594;43.516;1.498;2023-05-09T00:18:08;2.20;;;0.83;;
80293;SDS011;69594;43.516;1.498;2023-05-09T00:20:35;2.83;;;0.95;;
80293;SDS011;69594;43.516;1.498;2023-05-09T00:23:00;4.97;;;1.30;;
80293;SDS011;69594;43.516;1.498;2023-05-09T00:25:26;1.20;;;0.97;;
80293;SDS011;69594;43.516;1.498;2023-05-09T00:27:51;2.05;;;1.00;;
80293;SDS011;69594;43.516;1.498;2023-05-09T00:30:16;5.77;;;1.27;;
80293;SDS011;69594;43.516;1.498;2023-05-09T00:32:42;2.97;;;0.87;;
80293;SDS011;69594;43.516;1.498;2023-05-09T00:35:07;5.90;;;1.47;;
80293;SDS011;69594;43.516;1.498;2023-05-09T00:37:34;2.17;;;1.10;;
80293;SDS011;69594;43.516;1.498;2023-05-09T00:39:59;4.20;;;1.20;;
80293;SDS011;69594;43.516;1.498;2023-05-09T00:42:24;3.15;;;1.08;;
80293;SDS011;69594;43.516;1.498;2023-05-09T00:44:50;1.80;;;0.80;;
80293;SDS011;69594;43.516;1.498;2023-05-09T00:47:15;2.70;;;1.30;;
80293;SDS011;69594;43.516;1.498;2023-05-09T00:49:41;3.47;;;1.00;;
80293;SDS011;69594;43.516;1.498;2023-05-09T00:52:07;1.40;;;0.90;;
80293;SDS011;69594;43.516;1.498;2023-05-09T00:54:32;1.67;;;1.20;;
80293;SDS011;69594;43.516;1.498;2023-05-09T00:56:58;2.78;;;1.00;;
80293;SDS011;69594;43.516;1.498;2023-05-09T00:59:24;2.88;;;1.20;;
80293;SDS011;69594;43.516;1.498;2023-05-09T01:01:51;1.80;;;0.90;;
80293;SDS011;69594;43.516;1.498;2023-05-09T01:04:16;2.77;;;1.33;;
80293;SDS011;69594;43.516;1.498;2023-05-09T01:06:57;4.40;;;1.60;;
80293;SDS011;69594;43.516;1.498;2023-05-09T01:18:27;2.73;;;1.20;;
80293;SDS011;69594;43.516;1.498;2023-05-09T01:26:42;3.90;;;1.40;;
80293;SDS011;69594;43.516;1.498;2023-05-09T01:31:56;3.27;;;1.63;;
80293;SDS011;69594;43.516;1.498;2023-05-09T01:34:24;3.28;;;1.10;;
80293;SDS011;69594;43.516;1.498;2023-05-09T01:36:53;3.42;;;1.30;;
80293;SDS011;69594;43.516;1.498;2023-05-09T01:39:23;7.20;;;1.88;;
80293;SDS011;69594;43.516;1.498;2023-05-09T01:41:51;2.78;;;1.20;;
80293;SDS011;69594;43.516;1.498;2023-05-09T01:44:19;3.90;;;1.37;;
80293;SDS011;69594;43.516;1.498;2023-05-09T01:46:46;3.10;;;1.48;;
80293;SDS011;69594;43.516;1.498;2023-05-09T01:49:14;3.53;;;1.38;;
80293;SDS011;69594;43.516;1.498;2023-05-09T01:51:41;5.82;;;2.15;;
80293;SDS011;69594;43.516;1.498;2023-05-09T01:54:08;3.92;;;1.40;;
80293;SDS011;69594;43.516;1.498;2023-05-09T01:56:35;2.77;;;1.17;;
80293;SDS011;69594;43.516;1.498;2023-05-09T01:59:04;5.28;;;1.30;;
80293;SDS011;69594;43.516;1.498;2023-05-09T02:01:31;3.83;;;1.33;;
80293;SDS011;69594;43.516;1.498;2023-05-09T02:03:58;5.63;;;1.63;;
80293;SDS011;69594;43.516;1.498;2023-05-09T02:06:25;3.08;;;1.45;;
80293;SDS011;69594;43.516;1.498;2023-05-09T02:08:53;2.60;;;1.50;;
80293;SDS011;69594;43.516;1.498;2023-05-09T02:11:21;2.38;;;1.45;;
80293;SDS011;69594;43.516;1.498;2023-05-09T02:13:46;4.63;;;1.90;;
80293;SDS011;69594;43.516;1.498;2023-05-09T02:16:12;4.37;;;2.00;;
80293;SDS011;69594;43.516;1.498;2023-05-09T02:18:38;3.88;;;1.60;;
80293;SDS011;69594;43.516;1.498;2023-05-09T02:21:03;2.67;;;1.70;;
80293;SDS011;69594;43.516;1.498;2023-05-09T02:23:29;4.15;;;1.50;;
80293;SDS011;69594;43.516;1.498;2023-05-09T02:25:55;5.85;;;1.55;;
80293;SDS011;69594;43.516;1.498;2023-05-09T02:28:21;4.60;;;1.60;;
80293;SDS011;69594;43.516;1.498;2023-05-09T02:30:47;6.07;;;1.70;;
80293;SDS011;69594;43.516;1.498;2023-05-09T02:33:14;4.18;;;1.80;;
80293;SDS011;69594;43.516;1.498;2023-05-09T02:35:40;4.18;;;1.83;;
80293;SDS011;69594;43.516;1.498;2023-05-09T02:38:07;5.27;;;1.53;;
80293;SDS011;69594;43.516;1.498;2023-05-09T02:40:33;4.30;;;1.50;;
80293;SDS011;69594;43.516;1.498;2023-05-09T02:42:59;3.78;;;1.60;;
80293;SDS011;69594;43.516;1.498;2023-05-09T02:45:25;5.07;;;1.60;;
80293;SDS011;69594;43.516;1.498;2023-05-09T02:47:50;3.00;;;1.33;;
80293;SDS011;69594;43.516;1.498;2023-05-09T02:50:16;3.35;;;1.38;;
80293;SDS011;69594;43.516;1.498;2023-05-09T02:52:41;3.70;;;1.60;;
80293;SDS011;69594;43.516;1.498;2023-05-09T02:55:07;4.00;;;1.70;;
80293;SDS011;69594;43.516;1.498;2023-05-09T02:57:33;3.45;;;1.50;;
80293;SDS011;69594;43.516;1.498;2023-05-09T02:59:59;2.07;;;1.40;;
80293;SDS011;69594;43.516;1.498;2023-05-09T03:02:24;2.90;;;1.40;;
80293;SDS011;69594;43.516;1.498;2023-05-09T03:04:50;7.43;;;2.20;;
80293;SDS011;69594;43.516;1.498;2023-05-09T03:07:15;4.73;;;1.70;;
80293;SDS011;69594;43.516;1.498;2023-05-09T03:09:41;4.03;;;1.33;;
80293;SDS011;69594;43.516;1.498;2023-05-09T03:12:06;4.47;;;1.70;;
80293;SDS011;69594;43.516;1.498;2023-05-09T03:14:32;4.17;;;1.80;;
80293;SDS011;69594;43.516;1.498;2023-05-09T03:16:57;3.17;;;1.50;;
80293;SDS011;69594;43.516;1.498;2023-05-09T03:19:23;5.07;;;2.00;;
80293;SDS011;69594;43.516;1.498;2023-05-09T03:21:49;4.63;;;1.93;;
80293;SDS011;69594;43.516;1.498;2023-05-09T03:24:14;2.88;;;1.67;;
80293;SDS011;69594;43.516;1.498;2023-05-09T03:26:40;6.77;;;1.80;;
80293;SDS011;69594;43.516;1.498;2023-05-09T03:29:05;3.73;;;1.73;;
80293;SDS011;69594;43.516;1.498;2023-05-09T03:31:31;4.20;;;1.60;;
80293;SDS011;69594;43.516;1.498;2023-05-09T03:33:56;4.10;;;1.60;;
80293;SDS011;69594;43.516;1.498;2023-05-09T03:36:22;4.20;;;1.60;;
80293;SDS011;69594;43.516;1.498;2023-05-09T03:38:48;3.60;;;1.40;;
80293;SDS011;69594;43.516;1.498;2023-05-09T03:41:14;3.90;;;1.30;;
80293;SDS011;69594;43.516;1.498;2023-05-09T03:43:40;2.75;;;1.38;;
80293;SDS011;69594;43.516;1.498;2023-05-09T03:46:06;5.23;;;1.67;;
80293;SDS011;69594;43.516;1.498;2023-05-09T03:48:31;4.70;;;1.50;;
80293;SDS011;69594;43.516;1.498;2023-05-09T03:50:57;5.60;;;1.40;;
80293;SDS011;69594;43.516;1.498;2023-05-09T03:53:22;4.97;;;1.70;;
80293;SDS011;69594;43.516;1.498;2023-05-09T03:55:48;3.07;;;1.60;;
80293;SDS011;69594;43.516;1.498;2023-05-09T03:58:13;4.83;;;1.53;;
80293;SDS011;69594;43.516;1.498;2023-05-09T04:00:39;4.53;;;1.80;;
80293;SDS011;69594;43.516;1.498;2023-05-09T04:03:05;5.25;;;1.52;;
80293;SDS011;69594;43.516;1.498;2023-05-09T04:05:30;4.18;;;1.83;;
80293;SDS011;69594;43.516;1.498;2023-05-09T04:07:57;3.90;;;1.70;;
80293;SDS011;69594;43.516;1.498;2023-05-09T04:10:23;3.72;;;1.77;;
80293;SDS011;69594;43.516;1.498;2023-05-09T04:12:49;3.67;;;1.60;;
80293;SDS011;69594;43.516;1.498;2023-05-09T04:15:15;3.03;;;1.70;;
80293;SDS011;69594;43.516;1.498;2023-05-09T04:17:40;2.57;;;1.50;;
80293;SDS011;69594;43.516;1.498;2023-05-09T04:20:06;4.90;;;1.60;;
80293;SDS011;69594;43.516;1.498;2023-05-09T04:22:32;5.13;;;1.67;;
80293;SDS011;69594;43.516;1.498;2023-05-09T04:24:58;3.72;;;1.38;;
80293;SDS011;69594;43.516;1.498;2023-05-09T04:27:23;5.00;;;1.33;;
80293;SDS011;69594;43.516;1.498;2023-05-09T04:29:48;4.17;;;1.50;;
80293;SDS011;69594;43.516;1.498;2023-05-09T04:32:14;5.25;;;2.15;;
80293;SDS011;69594;43.516;1.498;2023-05-09T04:34:39;4.90;;;1.50;;
80293;SDS011;69594;43.516;1.498;2023-05-09T04:37:05;3.03;;;1.47;;
80293;SDS011;69594;43.516;1.498;2023-05-09T04:39:30;4.43;;;1.60;;
80293;SDS011;69594;43.516;1.498;2023-05-09T04:41:56;5.40;;;2.10;;
80293;SDS011;69594;43.516;1.498;2023-05-09T04:44:22;6.27;;;1.90;;
80293;SDS011;69594;43.516;1.498;2023-05-09T04:46:48;3.63;;;1.90;;
80293;SDS011;69594;43.516;1.498;2023-05-09T04:49:14;5.60;;;1.80;;
80293;SDS011;69594;43.516;1.498;2023-05-09T04:51:40;6.33;;;2.33;;
80293;SDS011;69594;43.516;1.498;2023-05-09T04:54:05;5.03;;;1.80;;
80293;SDS011;69594;43.516;1.498;2023-05-09T04:56:30;5.10;;;2.27;;
80293;SDS011;69594;43.516;1.498;2023-05-09T04:58:56;6.00;;;1.67;;
80293;SDS011;69594;43.516;1.498;2023-05-09T05:01:21;3.53;;;1.80;;
80293;SDS011;69594;43.516;1.498;2023-05-09T05:03:47;2.87;;;1.73;;
80293;SDS011;69594;43.516;1.498;2023-05-09T05:06:12;3.53;;;1.80;;
80293;SDS011;69594;43.516;1.498;2023-05-09T05:08:38;3.72;;;1.52;;
80293;SDS011;69594;43.516;1.498;2023-05-09T05:11:03;5.37;;;2.17;;
80293;SDS011;69594;43.516;1.498;2023-05-09T05:13:28;5.67;;;2.10;;
80293;SDS011;69594;43.516;1.498;2023-05-09T05:15:54;4.47;;;1.70;;
80293;SDS011;69594;43.516;1.498;2023-05-09T05:18:20;4.35;;;1.95;;
80293;SDS011;69594;43.516;1.498;2023-05-09T05:20:46;5.35;;;1.98;;
80293;SDS011;69594;43.516;1.498;2023-05-09T05:23:11;6.60;;;2.10;;
80293;SDS011;69594;43.516;1.498;2023-05-09T05:25:37;4.77;;;1.90;;
80293;SDS011;69594;43.516;1.498;2023-05-09T05:28:02;4.72;;;1.98;;
80293;SDS011;69594;43.516;1.498;2023-05-09T05:30:28;5.27;;;2.03;;
80293;SDS011;69594;43.516;1.498;2023-05-09T05:32:53;6.73;;;2.23;;
80293;SDS011;69594;43.516;1.498;2023-05-09T05:35:19;4.60;;;1.87;;
80293;SDS011;69594;43.516;1.498;2023-05-09T05:37:47;10.02;;;1.90;;
80293;SDS011;69594;43.516;1.498;2023-05-09T05:40:12;4.73;;;1.93;;
80293;SDS011;69594;43.516;1.498;2023-05-09T05:42:38;4.53;;;1.97;;
80293;SDS011;69594;43.516;1.498;2023-05-09T05:45:03;5.30;;;1.80;;
80293;SDS011;69594;43.516;1.498;2023-05-09T05:47:33;4.17;;;2.00;;
80293;SDS011;69594;43.516;1.498;2023-05-09T05:50:00;5.45;;;2.03;;
80293;SDS011;69594;43.516;1.498;2023-05-09T05:52:26;5.30;;;2.35;;
80293;SDS011;69594;43.516;1.498;2023-05-09T05:54:52;7.20;;;2.13;;
80293;SDS011;69594;43.516;1.498;2023-05-09T05:57:18;4.88;;;2.20;;
80293;SDS011;69594;43.516;1.498;2023-05-09T05:59:47;4.30;;;1.88;;
80293;SDS011;69594;43.516;1.498;2023-05-09T06:02:16;4.00;;;1.87;;
80293;SDS011;69594;43.516;1.498;2023-05-09T06:04:42;7.72;;;2.17;;
80293;SDS011;69594;43.516;1.498;2023-05-09T06:07:08;4.40;;;2.00;;
80293;SDS011;69594;43.516;1.498;2023-05-09T06:09:34;4.80;;;2.10;;
80293;SDS011;69594;43.516;1.498;2023-05-09T06:12:00;5.57;;;2.07;;
80293;SDS011;69594;43.516;1.498;2023-05-09T06:14:25;6.63;;;2.43;;
80293;SDS011;69594;43.516;1.498;2023-05-09T06:16:51;8.43;;;2.27;;
80293;SDS011;69594;43.516;1.498;2023-05-09T06:19:17;4.60;;;1.67;;
80293;SDS011;69594;43.516;1.498;2023-05-09T06:21:42;7.13;;;2.20;;
80293;SDS011;69594;43.516;1.498;2023-05-09T06:24:08;6.78;;;1.80;;
80293;SDS011;69594;43.516;1.498;2023-05-09T06:26:34;4.97;;;1.50;;
80293;SDS011;69594;43.516;1.498;2023-05-09T06:29:00;7.65;;;1.83;;
80293;SDS011;69594;43.516;1.498;2023-05-09T06:31:25;6.73;;;2.00;;
80293;SDS011;69594;43.516;1.498;2023-05-09T06:33:51;3.90;;;2.23;;
80293;SDS011;69594;43.516;1.498;2023-05-09T06:36:17;8.95;;;2.10;;
80293;SDS011;69594;43.516;1.498;2023-05-09T06:38:42;7.40;;;2.23;;
80293;SDS011;69594;43.516;1.498;2023-05-09T06:41:07;6.07;;;2.10;;
80293;SDS011;69594;43.516;1.498;2023-05-09T06:43:33;7.32;;;1.92;;
80293;SDS011;69594;43.516;1.498;2023-05-09T06:45:58;5.83;;;2.30;;
80293;SDS011;69594;43.516;1.498;2023-05-09T06:48:24;8.20;;;2.50;;
80293;SDS011;69594;43.516;1.498;2023-05-09T06:50:49;12.50;;;2.50;;
80293;SDS011;69594;43.516;1.498;2023-05-09T06:53:15;4.17;;;2.00;;
80293;SDS011;69594;43.516;1.498;2023-05-09T06:55:41;4.40;;;1.97;;
80293;SDS011;69594;43.516;1.498;2023-05-09T06:58:06;7.68;;;2.40;;
80293;SDS011;69594;43.516;1.498;2023-05-09T07:00:32;7.13;;;2.13;;
80293;SDS011;69594;43.516;1.498;2023-05-09T07:02:57;10.33;;;2.40;;
80293;SDS011;69594;43.516;1.498;2023-05-09T07:05:23;9.63;;;2.15;;
80293;SDS011;69594;43.516;1.498;2023-05-09T07:07:48;8.07;;;2.37;;
80293;SDS011;69594;43.516;1.498;2023-05-09T07:10:14;7.80;;;2.33;;
80293;SDS011;69594;43.516;1.498;2023-05-09T07:12:39;7.93;;;2.20;;
80293;SDS011;69594;43.516;1.498;2023-05-09T07:15:05;7.65;;;1.95;;
80293;SDS011;69594;43.516;1.498;2023-05-09T07:17:31;7.30;;;2.00;;
80293;SDS011;69594;43.516;1.498;2023-05-09T07:19:57;5.70;;;2.40;;
80293;SDS011;69594;43.516;1.498;2023-05-09T07:22:22;10.17;;;2.47;;
80293;SDS011;69594;43.516;1.498;2023-05-09T07:24:48;6.22;;;2.33;;
80293;SDS011;69594;43.516;1.498;2023-05-09T07:27:14;7.45;;;1.95;;
80293;SDS011;69594;43.516;1.498;2023-05-09T07:29:40;8.23;;;2.67;;
80293;SDS011;69594;43.516;1.498;2023-05-09T07:32:05;6.40;;;2.40;;
80293;SDS011;69594;43.516;1.498;2023-05-09T07:34:31;11.50;;;2.50;;
80293;SDS011;69594;43.516;1.498;2023-05-09T07:36:56;11.23;;;2.50;;
80293;SDS011;69594;43.516;1.498;2023-05-09T07:39:24;9.17;;;2.63;;
80293;SDS011;69594;43.516;1.498;2023-05-09T07:41:49;9.38;;;2.38;;
80293;SDS011;69594;43.516;1.498;2023-05-09T07:44:14;8.27;;;2.97;;
80293;SDS011;69594;43.516;1.498;2023-05-09T07:46:40;6.47;;;2.35;;
80293;SDS011;69594;43.516;1.498;2023-05-09T07:49:06;11.67;;;3.23;;
80293;SDS011;69594;43.516;1.498;2023-05-09T07:51:32;7.50;;;2.05;;
80293;SDS011;69594;43.516;1.498;2023-05-09T07:53:57;10.00;;;2.80;;
80293;SDS011;69594;43.516;1.498;2023-05-09T07:56:23;8.27;;;3.23;;
80293;SDS011;69594;43.516;1.498;2023-05-09T07:58:48;8.77;;;2.40;;
80293;SDS011;69594;43.516;1.498;2023-05-09T08:01:14;9.93;;;2.43;;
80293;SDS011;69594;43.516;1.498;2023-05-09T08:03:39;9.55;;;3.70;;
80293;SDS011;69594;43.516;1.498;2023-05-09T08:06:05;11.90;;;3.00;;
80293;SDS011;69594;43.516;1.498;2023-05-09T08:08:30;9.40;;;2.50;;
80293;SDS011;69594;43.516;1.498;2023-05-09T08:10:56;8.20;;;2.80;;
80293;SDS011;69594;43.516;1.498;2023-05-09T08:13:22;7.63;;;2.63;;
80293;SDS011;69594;43.516;1.498;2023-05-09T08:15:47;11.97;;;2.97;;
80293;SDS011;69594;43.516;1.498;2023-05-09T08:18:13;8.55;;;2.22;;
80293;SDS011;69594;43.516;1.498;2023-05-09T08:20:38;8.53;;;2.93;;
80293;SDS011;69594;43.516;1.498;2023-05-09T08:23:04;6.18;;;2.47;;
80293;SDS011;69594;43.516;1.498;2023-05-09T08:25:30;9.38;;;2.47;;
80293;SDS011;69594;43.516;1.498;2023-05-09T08:27:56;6.50;;;2.77;;
80293;SDS011;69594;43.516;1.498;2023-05-09T08:30:21;8.20;;;2.90;;
80293;SDS011;69594;43.516;1.498;2023-05-09T08:32:48;7.17;;;2.43;;
80293;SDS011;69594;43.516;1.498;2023-05-09T08:35:13;7.28;;;2.20;;
80293;SDS011;69594;43.516;1.498;2023-05-09T08:37:39;5.07;;;1.87;;
80293;SDS011;69594;43.516;1.498;2023-05-09T08:40:05;8.45;;;2.45;;
80293;SDS011;69594;43.516;1.498;2023-05-09T08:42:35;8.15;;;2.65;;
80293;SDS011;69594;43.516;1.498;2023-05-09T08:45:08;9.32;;;2.47;;
80293;SDS011;69594;43.516;1.498;2023-05-09T08:47:36;6.38;;;2.03;;
80293;SDS011;69594;43.516;1.498;2023-05-09T08:50:02;9.17;;;2.67;;
80293;SDS011;69594;43.516;1.498;2023-05-09T08:52:32;5.72;;;2.50;;
80293;SDS011;69594;43.516;1.498;2023-05-09T08:54:58;6.40;;;2.53;;
80293;SDS011;69594;43.516;1.498;2023-05-09T08:57:25;6.32;;;1.80;;
80293;SDS011;69594;43.516;1.498;2023-05-09T08:59:51;5.03;;;2.10;;
80293;SDS011;69594;43.516;1.498;2023-05-09T09:02:18;8.57;;;2.33;;
80293;SDS011;69594;43.516;1.498;2023-05-09T09:04:43;10.07;;;3.10;;
80293;SDS011;69594;43.516;1.498;2023-05-09T09:07:09;5.85;;;2.22;;
80293;SDS011;69594;43.516;1.498;2023-05-09T09:09:36;5.63;;;2.27;;
80293;SDS011;69594;43.516;1.498;2023-05-09T09:12:11;6.60;;;2.25;;
80293;SDS011;69594;43.516;1.498;2023-05-09T09:14:40;10.43;;;2.67;;
80293;SDS011;69594;43.516;1.498;2023-05-09T09:17:10;5.90;;;1.80;;
80293;SDS011;69594;43.516;1.498;2023-05-09T09:19:38;10.50;;;2.38;;
80293;SDS011;69594;43.516;1.498;2023-05-09T09:22:05;7.00;;;2.40;;
80293;SDS011;69594;43.516;1.498;2023-05-09T09:24:31;7.32;;;2.08;;
80293;SDS011;69594;43.516;1.498;2023-05-09T09:27:00;8.88;;;2.38;;
80293;SDS011;69594;43.516;1.498;2023-05-09T09:29:29;11.27;;;2.05;;
80293;SDS011;69594;43.516;1.498;2023-05-09T09:31:55;4.95;;;1.90;;
80293;SDS011;69594;43.516;1.498;2023-05-09T09:34:21;8.07;;;1.87;;
80293;SDS011;69594;43.516;1.498;2023-05-09T09:36:48;5.07;;;1.77;;
80293;SDS011;69594;43.516;1.498;2023-05-09T09:39:13;4.90;;;1.63;;
80293;SDS011;69594;43.516;1.498;2023-05-09T09:41:40;4.60;;;1.48;;
80293;SDS011;69594;43.516;1.498;2023-05-09T09:44:09;8.77;;;1.90;;
80293;SDS011;69594;43.516;1.498;2023-05-09T09:46:47;7.97;;;1.98;;
80293;SDS011;69594;43.516;1.498;2023-05-09T09:49:15;5.00;;;1.70;;
80293;SDS011;69594;43.516;1.498;2023-05-09T09:51:43;5.03;;;1.58;;
80293;SDS011;69594;43.516;1.498;2023-05-09T09:54:09;7.53;;;2.05;;
80293;SDS011;69594;43.516;1.498;2023-05-09T09:56:43;4.57;;;1.50;;
80293;SDS011;69594;43.516;1.498;2023-05-09T09:59:11;6.30;;;1.67;;
80293;SDS011;69594;43.516;1.498;2023-05-09T10:04:37;6.88;;;1.88;;
80293;SDS011;69594;43.516;1.498;2023-05-09T10:07:06;3.72;;;1.67;;
80293;SDS011;69594;43.516;1.498;2023-05-09T10:09:34;4.88;;;1.45;;
80293;SDS011;69594;43.516;1.498;2023-05-09T10:12:05;2.80;;;1.23;;
80293;SDS011;69594;43.516;1.498;2023-05-09T10:14:35;6.23;;;1.70;;
80293;SDS011;69594;43.516;1.498;2023-05-09T10:17:05;5.55;;;1.50;;
80293;SDS011;69594;43.516;1.498;2023-05-09T10:19:32;5.72;;;1.85;;
80293;SDS011;69594;43.516;1.498;2023-05-09T10:22:02;5.63;;;1.98;;
80293;SDS011;69594;43.516;1.498;2023-05-09T10:24:46;4.35;;;1.60;;
80293;SDS011;69594;43.516;1.498;2023-05-09T10:27:30;4.00;;;1.47;;
80293;SDS011;69594;43.516;1.498;2023-05-09T10:30:08;5.13;;;2.00;;
80293;SDS011;69594;43.516;1.498;2023-05-09T10:35:28;5.40;;;2.03;;
80293;SDS011;69594;43.516;1.498;2023-05-09T10:37:57;3.75;;;1.30;;
80293;SDS011;69594;43.516;1.498;2023-05-09T10:40:24;4.20;;;1.60;;
80293;SDS011;69594;43.516;1.498;2023-05-09T10:42:50;6.03;;;1.80;;
80293;SDS011;69594;43.516;1.498;2023-05-09T10:45:15;3.13;;;1.23;;
80293;SDS011;69594;43.516;1.498;2023-05-09T10:47:42;5.53;;;1.63;;
80293;SDS011;69594;43.516;1.498;2023-05-09T10:50:09;4.82;;;1.67;;
80293;SDS011;69594;43.516;1.498;2023-05-09T10:53:03;5.27;;;2.10;;
80293;SDS011;69594;43.516;1.498;2023-05-09T11:00:43;4.93;;;1.98;;
80293;SDS011;69594;43.516;1.498;2023-05-09T11:03:10;7.47;;;2.65;;
80293;SDS011;69594;43.516;1.498;2023-05-09T11:05:39;6.57;;;2.07;;
80293;SDS011;69594;43.516;1.498;2023-05-09T11:10:53;4.30;;;2.20;;
80293;SDS011;69594;43.516;1.498;2023-05-09T11:13:20;4.43;;;1.58;;
80293;SDS011;69594;43.516;1.498;2023-05-09T11:18:25;5.10;;;1.90;;
80293;SDS011;69594;43.516;1.498;2023-05-09T11:20:54;4.60;;;1.50;;
80293;SDS011;69594;43.516;1.498;2023-05-09T11:23:28;4.37;;;1.77;;
80293;SDS011;69594;43.516;1.498;2023-05-09T11:26:06;3.58;;;2.00;;
80293;SDS011;69594;43.516;1.498;2023-05-09T11:28:36;3.05;;;1.77;;
80293;SDS011;69594;43.516;1.498;2023-05-09T11:33:35;6.53;;;1.80;;
80293;SDS011;69594;43.516;1.498;2023-05-09T11:36:18;3.13;;;1.37;;
80293;SDS011;69594;43.516;1.498;2023-05-09T11:38:51;5.85;;;1.67;;
80293;SDS011;69594;43.516;1.498;2023-05-09T11:41:25;4.68;;;1.88;;
80293;SDS011;69594;43.516;1.498;2023-05-09T11:43:51;3.05;;;1.80;;
80293;SDS011;69594;43.516;1.498;2023-05-09T11:46:16;4.53;;;1.73;;
80293;SDS011;69594;43.516;1.498;2023-05-09T11:48:42;3.87;;;1.67;;
80293;SDS011;69594;43.516;1.498;2023-05-09T11:51:14;2.67;;;1.60;;
80293;SDS011;69594;43.516;1.498;2023-05-09T11:53:48;3.67;;;1.70;;
80293;SDS011;69594;43.516;1.498;2023-05-09T11:56:14;4.78;;;1.60;;
80293;SDS011;69594;43.516;1.498;2023-05-09T11:58:40;3.47;;;1.38;;
80293;SDS011;69594;43.516;1.498;2023-05-09T12:01:06;3.33;;;1.40;;
80293;SDS011;69594;43.516;1.498;2023-05-09T12:03:32;5.37;;;1.40;;
80293;SDS011;69594;43.516;1.498;2023-05-09T12:05:59;4.53;;;1.20;;
80293;SDS011;69594;43.516;1.498;2023-05-09T12:08:25;2.70;;;1.20;;
80293;SDS011;69594;43.516;1.498;2023-05-09T12:10:52;3.00;;;1.20;;
80293;SDS011;69594;43.516;1.498;2023-05-09T12:13:17;2.30;;;0.93;;
80293;SDS011;69594;43.516;1.498;2023-05-09T12:15:43;2.45;;;1.17;;
80293;SDS011;69594;43.516;1.498;2023-05-09T12:18:08;3.83;;;1.10;;
80293;SDS011;69594;43.516;1.498;2023-05-09T12:20:41;3.03;;;1.37;;
80293;SDS011;69594;43.516;1.498;2023-05-09T12:23:11;3.65;;;1.15;;
80293;SDS011;69594;43.516;1.498;2023-05-09T12:25:38;3.50;;;1.00;;
80293;SDS011;69594;43.516;1.498;2023-05-09T12:28:13;2.63;;;1.20;;
80293;SDS011;69594;43.516;1.498;2023-05-09T12:30:39;3.63;;;1.20;;
80293;SDS011;69594;43.516;1.498;2023-05-09T12:33:04;2.78;;;1.17;;
80293;SDS011;69594;43.516;1.498;2023-05-09T12:35:36;3.47;;;1.30;;
80293;SDS011;69594;43.516;1.498;2023-05-09T12:38:04;3.07;;;1.07;;
80293;SDS011;69594;43.516;1.498;2023-05-09T12:40:30;4.63;;;1.05;;
80293;SDS011;69594;43.516;1.498;2023-05-09T12:42:56;3.17;;;0.70;;
80293;SDS011;69594;43.516;1.498;2023-05-09T12:45:25;1.15;;;0.80;;
80293;SDS011;69594;43.516;1.498;2023-05-09T12:47:51;3.03;;;1.00;;
80293;SDS011;69594;43.516;1.498;2023-05-09T12:50:17;2.50;;;0.90;;
80293;SDS011;69594;43.516;1.498;2023-05-09T12:52:43;1.20;;;0.70;;
80293;SDS011;69594;43.516;1.498;2023-05-09T12:55:15;2.50;;;0.70;;
80293;SDS011;69594;43.516;1.498;2023-05-09T12:57:42;1.38;;;0.70;;
80293;SDS011;69594;43.516;1.498;2023-05-09T13:00:22;2.88;;;1.00;;
80293;SDS011;69594;43.516;1.498;2023-05-09T13:02:48;2.67;;;0.60;;
80293;SDS011;69594;43.516;1.498;2023-05-09T13:05:16;1.50;;;0.70;;
80293;SDS011;69594;43.516;1.498;2023-05-09T13:07:44;1.47;;;0.70;;
80293;SDS011;69594;43.516;1.498;2023-05-09T13:12:57;2.08;;;1.02;;
80293;SDS011;69594;43.516;1.498;2023-05-09T13:15:23;1.63;;;0.80;;
80293;SDS011;69594;43.516;1.498;2023-05-09T13:17:50;4.90;;;1.10;;
80293;SDS011;69594;43.516;1.498;2023-05-09T13:20:16;2.03;;;0.77;;
80293;SDS011;69594;43.516;1.498;2023-05-09T13:22:42;1.70;;;0.88;;
80293;SDS011;69594;43.516;1.498;2023-05-09T13:25:11;1.40;;;1.10;;
80293;SDS011;69594;43.516;1.498;2023-05-09T13:27:37;2.25;;;1.05;;
80293;SDS011;69594;43.516;1.498;2023-05-09T13:30:03;1.17;;;0.98;;
80293;SDS011;69594;43.516;1.498;2023-05-09T13:32:31;1.85;;;0.90;;
80293;SDS011;69594;43.516;1.498;2023-05-09T13:34:57;2.67;;;1.37;;
80293;SDS011;69594;43.516;1.498;2023-05-09T13:37:23;3.85;;;1.00;;
80293;SDS011;69594;43.516;1.498;2023-05-09T13:39:48;2.73;;;1.00;;
80293;SDS011;69594;43.516;1.498;2023-05-09T13:42:13;2.27;;;0.90;;
80293;SDS011;69594;43.516;1.498;2023-05-09T13:44:39;1.98;;;1.02;;
80293;SDS011;69594;43.516;1.498;2023-05-09T13:47:05;1.85;;;0.90;;
80293;SDS011;69594;43.516;1.498;2023-05-09T13:49:32;1.37;;;0.90;;
80293;SDS011;69594;43.516;1.498;2023-05-09T13:51:58;2.72;;;1.08;;
80293;SDS011;69594;43.516;1.498;2023-05-09T13:54:24;1.65;;;0.88;;
80293;SDS011;69594;43.516;1.498;2023-05-09T13:56:50;1.43;;;0.80;;
80293;SDS011;69594;43.516;1.498;2023-05-09T13:59:16;0.90;;;0.77;;
80293;SDS011;69594;43.516;1.498;2023-05-09T14:01:42;2.33;;;0.90;;
80293;SDS011;69594;43.516;1.498;2023-05-09T14:04:08;1.03;;;0.80;;
80293;SDS011;69594;43.516;1.498;2023-05-09T14:06:33;3.37;;;0.90;;
80293;SDS011;69594;43.516;1.498;2023-05-09T14:08:58;2.43;;;0.93;;
80293;SDS011;69594;43.516;1.498;2023-05-09T14:11:24;1.52;;;0.90;;
80293;SDS011;69594;43.516;1.498;2023-05-09T14:13:50;1.37;;;1.10;;
80293;SDS011;69594;43.516;1.498;2023-05-09T14:16:18;1.92;;;0.73;;
80293;SDS011;69594;43.516;1.498;2023-05-09T14:18:45;2.10;;;0.80;;
80293;SDS011;69594;43.516;1.498;2023-05-09T14:21:10;2.30;;;0.90;;
80293;SDS011;69594;43.516;1.498;2023-05-09T14:23:35;1.00;;;0.90;;
80293;SDS011;69594;43.516;1.498;2023-05-09T14:26:01;1.67;;;0.95;;
80293;SDS011;69594;43.516;1.498;2023-05-09T14:28:26;2.43;;;1.00;;
80293;SDS011;69594;43.516;1.498;2023-05-09T14:30:52;2.10;;;1.03;;
80293;SDS011;69594;43.516;1.498;2023-05-09T14:33:18;1.73;;;1.10;;
80293;SDS011;69594;43.516;1.498;2023-05-09T14:35:44;2.57;;;1.40;;
80293;SDS011;69594;43.516;1.498;2023-05-09T14:38:09;2.00;;;1.07;;
80293;SDS011;69594;43.516;1.498;2023-05-09T14:40:36;2.40;;;1.13;;
80293;SDS011;69594;43.516;1.498;2023-05-09T14:43:02;2.33;;;1.23;;
80293;SDS011;69594;43.516;1.498;2023-05-09T14:45:28;2.10;;;1.00;;
80293;SDS011;69594;43.516;1.498;2023-05-09T14:47:54;1.90;;;1.38;;
80293;SDS011;69594;43.516;1.498;2023-05-09T14:50:19;1.90;;;1.40;;
80293;SDS011;69594;43.516;1.498;2023-05-09T14:52:45;1.13;;;1.02;;
80293;SDS011;69594;43.516;1.498;2023-05-09T14:55:11;1.70;;;1.35;;
80293;SDS011;69594;43.516;1.498;2023-05-09T14:57:37;1.50;;;1.10;;
80293;SDS011;69594;43.516;1.498;2023-05-09T15:00:03;2.00;;;1.30;;
80293;SDS011;69594;43.516;1.498;2023-05-09T15:02:29;2.20;;;1.30;;
80293;SDS011;69594;43.516;1.498;2023-05-09T15:04:54;2.25;;;1.15;;
80293;SDS011;69594;43.516;1.498;2023-05-09T15:07:20;1.60;;;1.33;;
80293;SDS011;69594;43.516;1.498;2023-05-09T15:09:46;2.72;;;1.10;;
80293;SDS011;69594;43.516;1.498;2023-05-09T15:12:12;1.53;;;0.90;;
80293;SDS011;69594;43.516;1.498;2023-05-09T15:14:37;1.40;;;1.10;;
80293;SDS011;69594;43.516;1.498;2023-05-09T15:17:03;2.28;;;0.98;;
80293;SDS011;69594;43.516;1.498;2023-05-09T15:19:29;1.73;;;1.20;;
80293;SDS011;69594;43.516;1.498;2023-05-09T15:21:59;2.30;;;1.10;;
80293;SDS011;69594;43.516;1.498;2023-05-09T15:24:24;1.55;;;0.98;;